createdAt,value
2017-04-19T00:00:58.773Z,1021.15
2017-04-19T00:01:59.335Z,1021.11
2017-04-19T00:02:59.868Z,1021.11
2017-04-19T00:04:00.357Z,1021.15
2017-04-19T00:05:00.887Z,1021.17
2017-04-19T00:06:01.418Z,1021.10
2017-04-19T00:07:01.952Z,1021.20
2017-04-19T00:08:02.625Z,1021.16
2017-04-19T00:09:03.012Z,1021.20
2017-04-19T00:10:03.539Z,1021.20
2017-04-19T00:11:04.074Z,1021.16
2017-04-19T00:12:04.755Z,1021.17
2017-04-19T00:13:05.136Z,1021.17
2017-04-19T00:14:05.668Z,1021.16
2017-04-19T00:15:06.193Z,1021.20
2017-04-19T00:16:06.869Z,1021.18
2017-04-19T00:17:07.255Z,1021.24
2017-04-19T00:18:07.780Z,1021.22
2017-04-19T00:19:08.311Z,1021.22
2017-04-19T00:20:08.985Z,1021.29
2017-04-19T00:21:09.510Z,1021.24
2017-04-19T00:22:09.890Z,1021.25
2017-04-19T00:23:10.419Z,1021.22
2017-04-19T00:24:10.949Z,1021.25
2017-04-19T00:25:11.480Z,1021.26
2017-04-19T00:26:12.028Z,1021.25
2017-04-19T00:27:12.543Z,1021.24
2017-04-19T00:28:13.077Z,1021.27
2017-04-19T00:29:13.606Z,1021.31
2017-04-19T00:30:14.139Z,1021.29
2017-04-19T00:31:14.675Z,1021.31
2017-04-19T00:32:15.217Z,1021.31
2017-04-19T00:33:15.743Z,1021.29
2017-04-19T00:34:16.275Z,1021.29
2017-04-19T00:35:16.810Z,1021.31
2017-04-19T00:36:17.337Z,1021.31
2017-04-19T00:37:17.871Z,1021.30
2017-04-19T00:38:18.547Z,1021.33
2017-04-19T00:39:19.075Z,1021.30
2017-04-19T00:40:19.607Z,1021.35
2017-04-19T00:41:19.989Z,1021.30
2017-04-19T00:42:20.520Z,1021.33
2017-04-19T00:43:21.049Z,1021.30
2017-04-19T00:44:21.584Z,1021.35
2017-04-19T00:45:22.111Z,1021.42
2017-04-19T00:46:22.642Z,1021.38
2017-04-19T00:47:23.173Z,1021.43
2017-04-19T00:48:23.707Z,1021.39
2017-04-19T00:49:24.231Z,1021.38
2017-04-19T00:50:24.760Z,1021.40
2017-04-19T00:51:25.291Z,1021.45
2017-04-19T00:52:25.818Z,1021.45
2017-04-19T00:53:26.348Z,1021.50
2017-04-19T00:54:26.877Z,1021.45
2017-04-19T00:55:27.409Z,1021.41
2017-04-19T00:56:28.082Z,1021.46
2017-04-19T00:57:28.608Z,1021.46
2017-04-19T00:58:29.142Z,1021.45
2017-04-19T00:59:29.524Z,1021.49
2017-04-19T01:00:30.206Z,1021.45
2017-04-19T01:01:30.735Z,1021.48
2017-04-19T01:02:31.118Z,1021.43
2017-04-19T01:03:31.647Z,1021.47
2017-04-19T01:04:32.327Z,1021.43
2017-04-19T01:05:32.706Z,1021.45
2017-04-19T01:06:33.233Z,1021.47
2017-04-19T01:07:33.765Z,1021.46
2017-04-19T01:08:34.292Z,1021.44
2017-04-19T01:09:34.823Z,1021.48
2017-04-19T01:10:35.368Z,1021.43
2017-04-19T01:11:35.884Z,1021.44
2017-04-19T01:12:36.414Z,1021.44
2017-04-19T01:13:36.953Z,1021.56
2017-04-19T01:14:37.489Z,1021.53
2017-04-19T01:15:38.028Z,1021.48
2017-04-19T01:16:38.706Z,1021.50
2017-04-19T01:17:39.091Z,1021.52
2017-04-19T01:18:39.617Z,1021.50
2017-04-19T01:19:40.145Z,1021.53
2017-04-19T01:20:40.825Z,1021.51
2017-04-19T01:21:41.206Z,1021.47
2017-04-19T01:22:41.737Z,1021.45
2017-04-19T01:23:42.414Z,1021.46
2017-04-19T01:24:42.797Z,1021.51
2017-04-19T01:25:43.327Z,1021.47
2017-04-19T01:26:44.007Z,1021.48
2017-04-19T01:27:44.387Z,1021.54
2017-04-19T01:28:45.069Z,1021.57
2017-04-19T01:29:45.444Z,1021.58
2017-04-19T01:30:46.126Z,1021.65
2017-04-19T01:31:46.506Z,1021.60
2017-04-19T01:32:47.037Z,1021.62
2017-04-19T01:33:47.569Z,1021.64
2017-04-19T01:34:48.098Z,1021.57
2017-04-19T01:35:48.635Z,1021.66
2017-04-19T01:36:49.156Z,1021.64
2017-04-19T01:37:49.696Z,1021.73
2017-04-19T01:38:50.225Z,1021.67
2017-04-19T01:39:50.756Z,1021.77
2017-04-19T01:40:51.430Z,1021.73
2017-04-19T01:41:51.813Z,1021.72
2017-04-19T01:42:52.338Z,1021.75
2017-04-19T01:43:52.876Z,1021.77
2017-04-19T01:44:53.550Z,1021.72
2017-04-19T01:45:54.077Z,1021.74
2017-04-19T01:46:54.461Z,1021.69
2017-04-19T01:47:54.992Z,1021.75
2017-04-19T01:48:55.525Z,1021.76
2017-04-19T01:49:56.056Z,1021.74
2017-04-19T01:50:56.583Z,1021.79
2017-04-19T01:51:57.116Z,1021.74
2017-04-19T01:52:57.639Z,1021.80
2017-04-19T01:53:58.175Z,1021.76
2017-04-19T01:54:58.701Z,1021.70
2017-04-19T01:55:59.242Z,1021.79
2017-04-19T01:56:59.781Z,1021.79
2017-04-19T01:58:00.304Z,1021.78
2017-04-19T01:59:00.870Z,1021.75
2017-04-19T02:00:01.368Z,1021.76
2017-04-19T02:01:01.906Z,1021.76
2017-04-19T02:02:02.425Z,1021.79
2017-04-19T02:03:02.955Z,1021.80
2017-04-19T02:04:03.482Z,1021.81
2017-04-19T02:05:04.025Z,1021.83
2017-04-19T02:06:04.545Z,1021.83
2017-04-19T02:07:05.074Z,1021.87
2017-04-19T02:08:05.610Z,1021.85
2017-04-19T02:09:06.131Z,1021.84
2017-04-19T02:10:06.663Z,1021.86
2017-04-19T02:11:07.198Z,1021.89
2017-04-19T02:12:07.722Z,1021.94
2017-04-19T02:13:08.252Z,1021.90
2017-04-19T02:14:08.786Z,1021.92
2017-04-19T02:15:09.319Z,1021.91
2017-04-19T02:16:09.993Z,1021.89
2017-04-19T02:17:11.889Z,1021.92
2017-04-19T02:18:10.911Z,1021.93
2017-04-19T02:19:11.435Z,1021.91
2017-04-19T02:20:11.965Z,1021.93
2017-04-19T02:21:12.495Z,1021.88
2017-04-19T02:22:13.022Z,1021.90
2017-04-19T02:23:13.560Z,1021.89
2017-04-19T02:24:14.083Z,1021.95
2017-04-19T02:25:14.617Z,1021.96
2017-04-19T02:26:15.141Z,1021.94
2017-04-19T02:27:15.673Z,1021.94
2017-04-19T02:28:16.202Z,1021.91
2017-04-19T02:29:16.729Z,1021.96
2017-04-19T02:30:17.407Z,1021.98
2017-04-19T02:31:17.939Z,1021.95
2017-04-19T02:32:18.468Z,1021.95
2017-04-19T02:33:18.859Z,1022.00
2017-04-19T02:34:19.386Z,1022.04
2017-04-19T02:35:19.915Z,1022.01
2017-04-19T02:36:20.460Z,1022.01
2017-04-19T02:37:20.992Z,1021.98
2017-04-19T02:38:21.533Z,1022.00
2017-04-19T02:39:22.059Z,1022.06
2017-04-19T02:40:22.729Z,1022.07
2017-04-19T02:41:23.121Z,1022.08
2017-04-19T02:42:23.641Z,1022.02
2017-04-19T02:43:24.176Z,1022.08
2017-04-19T02:44:24.702Z,1022.04
2017-04-19T02:45:25.378Z,1022.07
2017-04-19T02:46:25.758Z,1022.06
2017-04-19T02:47:26.292Z,1022.12
2017-04-19T02:48:26.816Z,1022.13
2017-04-19T02:49:27.344Z,1022.13
2017-04-19T02:50:27.878Z,1022.11
2017-04-19T02:51:28.410Z,1022.11
2017-04-19T02:52:28.937Z,1022.18
2017-04-19T02:53:29.471Z,1022.14
2017-04-19T02:54:29.995Z,1022.14
2017-04-19T02:55:30.535Z,1022.08
2017-04-19T02:56:31.061Z,1022.15
2017-04-19T02:57:31.597Z,1022.11
2017-04-19T02:58:32.120Z,1022.11
2017-04-19T02:59:32.648Z,1022.08
2017-04-19T03:00:33.173Z,1022.12
2017-04-19T03:01:33.702Z,1022.11
2017-04-19T03:02:34.237Z,1022.09
2017-04-19T03:03:34.761Z,1022.07
2017-04-19T03:04:35.297Z,1022.15
2017-04-19T03:05:35.821Z,1022.11
2017-04-19T03:06:36.496Z,1022.12
2017-04-19T03:07:36.879Z,1022.14
2017-04-19T03:08:37.413Z,1022.14
2017-04-19T03:09:38.092Z,1022.16
2017-04-19T03:10:38.471Z,1022.12
2017-04-19T03:11:38.994Z,1022.14
2017-04-19T03:12:39.528Z,1022.15
2017-04-19T03:13:40.055Z,1022.11
2017-04-19T03:14:40.585Z,1022.15
2017-04-19T03:15:41.119Z,1022.13
2017-04-19T03:16:41.673Z,1022.09
2017-04-19T03:17:42.188Z,1022.08
2017-04-19T03:18:42.710Z,1022.12
2017-04-19T03:19:43.254Z,1022.16
2017-04-19T03:20:43.785Z,1022.15
2017-04-19T03:21:44.317Z,1022.19
2017-04-19T03:22:44.851Z,1022.18
2017-04-19T03:23:45.384Z,1022.21
2017-04-19T03:24:45.909Z,1022.19
2017-04-19T03:25:46.449Z,1022.23
2017-04-19T03:26:46.969Z,1022.25
2017-04-19T03:27:47.500Z,1022.23
2017-04-19T03:28:48.037Z,1022.27
2017-04-19T03:29:48.557Z,1022.25
2017-04-19T03:30:49.088Z,1022.25
2017-04-19T03:31:49.619Z,1022.30
2017-04-19T03:32:50.152Z,1022.33
2017-04-19T03:33:50.829Z,1022.32
2017-04-19T03:34:51.205Z,1022.39
2017-04-19T03:35:51.732Z,1022.41
2017-04-19T03:36:52.269Z,1022.43
2017-04-19T03:37:52.945Z,1022.41
2017-04-19T03:38:53.329Z,1022.40
2017-04-19T03:39:54.005Z,1022.46
2017-04-19T03:40:54.386Z,1022.38
2017-04-19T03:41:54.909Z,1022.44
2017-04-19T03:42:55.460Z,1022.46
2017-04-19T03:43:55.974Z,1022.47
2017-04-19T03:44:56.507Z,1022.46
2017-04-19T03:45:57.034Z,1022.54
2017-04-19T03:47:58.093Z,1022.42
2017-04-19T03:48:58.625Z,1022.45
2017-04-19T03:49:59.158Z,1022.48
2017-04-19T03:50:59.683Z,1022.47
2017-04-19T03:52:00.220Z,1022.46
2017-04-19T03:53:01.486Z,1022.47
2017-04-19T03:54:01.273Z,1022.45
2017-04-19T03:55:01.798Z,1022.47
2017-04-19T03:56:02.325Z,1022.51
2017-04-19T03:57:02.861Z,1022.50
2017-04-19T03:58:03.398Z,1022.59
2017-04-19T03:59:04.060Z,1022.51
2017-04-19T04:00:04.444Z,1022.52
2017-04-19T04:01:04.978Z,1022.58
2017-04-19T04:02:05.664Z,1022.59
2017-04-19T04:03:06.044Z,1022.56
2017-04-19T04:04:06.577Z,1022.60
2017-04-19T04:05:07.109Z,1022.58
2017-04-19T04:06:07.641Z,1022.59
2017-04-19T04:07:08.171Z,1022.59
2017-04-19T04:08:08.702Z,1022.58
2017-04-19T04:09:09.236Z,1022.57
2017-04-19T04:10:09.757Z,1022.62
2017-04-19T04:11:10.294Z,1022.65
2017-04-19T04:12:10.817Z,1022.62
2017-04-19T04:13:11.352Z,1022.69
2017-04-19T04:14:11.879Z,1022.71
2017-04-19T04:15:12.443Z,1022.70
2017-04-19T04:16:12.939Z,1022.67
2017-04-19T04:17:13.471Z,1022.72
2017-04-19T04:18:14.147Z,1022.80
2017-04-19T04:19:14.531Z,1022.73
2017-04-19T04:20:15.211Z,1022.70
2017-04-19T04:21:15.741Z,1022.77
2017-04-19T04:22:16.121Z,1022.74
2017-04-19T04:23:16.652Z,1022.76
2017-04-19T04:24:17.200Z,1022.82
2017-04-19T04:25:17.712Z,1022.74
2017-04-19T04:26:18.245Z,1022.79
2017-04-19T04:27:18.773Z,1022.81
2017-04-19T04:28:19.303Z,1022.76
2017-04-19T04:29:19.834Z,1022.77
2017-04-19T04:30:20.362Z,1022.80
2017-04-19T04:31:20.894Z,1022.84
2017-04-19T04:32:21.424Z,1022.82
2017-04-19T04:33:21.954Z,1022.79
2017-04-19T04:34:22.482Z,1022.83
2017-04-19T04:35:23.012Z,1022.85
2017-04-19T04:36:23.546Z,1022.85
2017-04-19T04:37:24.077Z,1022.81
2017-04-19T04:38:24.638Z,1022.84
2017-04-19T04:39:25.281Z,1022.87
2017-04-19T04:40:25.668Z,1022.88
2017-04-19T04:41:26.194Z,1022.89
2017-04-19T04:42:26.718Z,1022.90
2017-04-19T04:43:27.252Z,1022.91
2017-04-19T04:44:27.936Z,1022.91
2017-04-19T04:45:28.321Z,1022.95
2017-04-19T04:46:28.849Z,1022.91
2017-04-19T04:47:29.385Z,1022.93
2017-04-19T04:48:30.066Z,1023.01
2017-04-19T04:49:30.449Z,1023.00
2017-04-19T04:50:31.126Z,1022.97
2017-04-19T04:51:31.504Z,1023.00
2017-04-19T04:52:32.072Z,1022.99
2017-04-19T04:53:32.572Z,1023.04
2017-04-19T04:54:33.247Z,1023.01
2017-04-19T04:55:33.626Z,1023.01
2017-04-19T04:56:34.179Z,1023.01
2017-04-19T04:57:34.687Z,1023.04
2017-04-19T04:58:35.365Z,1023.06
2017-04-19T04:59:35.745Z,1023.05
2017-04-19T05:00:36.427Z,1023.07
2017-04-19T05:01:36.810Z,1023.10
2017-04-19T05:02:37.339Z,1023.06
2017-04-19T05:03:37.873Z,1023.07
2017-04-19T05:04:38.399Z,1023.15
2017-04-19T05:05:38.933Z,1023.12
2017-04-19T05:06:39.462Z,1023.13
2017-04-19T05:07:39.993Z,1023.10
2017-04-19T05:08:40.522Z,1023.13
2017-04-19T05:09:41.054Z,1023.14
2017-04-19T05:10:41.575Z,1023.08
2017-04-19T05:11:42.111Z,1023.22
2017-04-19T05:12:42.635Z,1023.16
2017-04-19T05:13:43.173Z,1023.18
2017-04-19T05:14:43.696Z,1023.19
2017-04-19T05:15:44.230Z,1023.17
2017-04-19T05:16:44.754Z,1023.20
2017-04-19T05:17:45.296Z,1023.17
2017-04-19T05:18:45.824Z,1023.19
2017-04-19T05:19:46.348Z,1023.21
2017-04-19T05:20:46.883Z,1023.22
2017-04-19T05:21:47.414Z,1023.17
2017-04-19T05:22:47.948Z,1023.21
2017-04-19T05:23:48.479Z,1023.17
2017-04-19T05:24:49.008Z,1023.24
2017-04-19T05:25:49.537Z,1023.23
2017-04-19T05:26:50.075Z,1023.24
2017-04-19T05:27:50.613Z,1023.26
2017-04-19T05:28:51.138Z,1023.26
2017-04-19T05:29:51.820Z,1023.27
2017-04-19T05:30:52.199Z,1023.29
2017-04-19T05:31:52.734Z,1023.30
2017-04-19T05:32:53.265Z,1023.26
2017-04-19T05:33:53.795Z,1023.25
2017-04-19T05:34:54.316Z,1023.22
2017-04-19T05:35:54.852Z,1023.32
2017-04-19T05:36:55.377Z,1023.29
2017-04-19T05:37:55.910Z,1023.28
2017-04-19T05:38:56.440Z,1023.31
2017-04-19T05:39:56.963Z,1023.32
2017-04-19T05:40:57.502Z,1023.34
2017-04-19T05:41:58.020Z,1023.36
2017-04-19T05:42:58.555Z,1023.28
2017-04-19T05:43:59.084Z,1023.32
2017-04-19T05:44:59.609Z,1023.25
2017-04-19T05:46:00.143Z,1023.30
2017-04-19T05:47:00.819Z,1023.32
2017-04-19T05:48:01.199Z,1023.31
2017-04-19T05:49:01.728Z,1023.35
2017-04-19T05:50:02.259Z,1023.38
2017-04-19T05:51:02.791Z,1023.35
2017-04-19T05:52:03.321Z,1023.39
2017-04-19T05:53:03.846Z,1023.39
2017-04-19T05:54:04.375Z,1023.38
2017-04-19T05:55:04.904Z,1023.40
2017-04-19T05:56:05.433Z,1023.39
2017-04-19T05:57:05.962Z,1023.45
2017-04-19T05:58:06.490Z,1023.44
2017-04-19T05:59:07.163Z,1023.47
2017-04-19T06:00:07.545Z,1023.43
2017-04-19T06:01:08.074Z,1023.46
2017-04-19T06:02:08.604Z,1023.49
2017-04-19T06:03:09.135Z,1023.49
2017-04-19T06:04:09.659Z,1023.49
2017-04-19T06:05:10.191Z,1023.49
2017-04-19T06:06:10.723Z,1023.53
2017-04-19T06:07:11.404Z,1023.55
2017-04-19T06:08:11.934Z,1023.59
2017-04-19T06:09:12.470Z,1023.57
2017-04-19T06:10:12.859Z,1023.59
2017-04-19T06:11:13.386Z,1023.64
2017-04-19T06:12:13.915Z,1023.62
2017-04-19T06:13:14.458Z,1023.60
2017-04-19T06:14:14.970Z,1023.66
2017-04-19T06:15:15.498Z,1023.65
2017-04-19T06:16:16.032Z,1023.66
2017-04-19T06:17:16.711Z,1023.68
2017-04-19T06:18:17.089Z,1023.65
2017-04-19T06:19:17.771Z,1023.68
2017-04-19T06:20:18.299Z,1023.73
2017-04-19T06:21:18.685Z,1023.66
2017-04-19T06:22:19.209Z,1023.67
2017-04-19T06:23:19.741Z,1023.68
2017-04-19T06:24:20.271Z,1023.71
2017-04-19T06:25:20.800Z,1023.76
2017-04-19T06:26:21.332Z,1023.74
2017-04-19T06:27:21.866Z,1023.71
2017-04-19T06:28:22.391Z,1023.70
2017-04-19T06:29:23.072Z,1023.72
2017-04-19T06:30:23.447Z,1023.73
2017-04-19T06:31:23.975Z,1023.76
2017-04-19T06:32:24.512Z,1023.78
2017-04-19T06:33:25.033Z,1023.72
2017-04-19T06:34:25.563Z,1023.70
2017-04-19T06:35:26.094Z,1023.79
2017-04-19T06:36:26.626Z,1023.74
2017-04-19T06:37:27.157Z,1023.75
2017-04-19T06:38:27.685Z,1023.79
2017-04-19T06:39:28.224Z,1023.85
2017-04-19T06:40:28.751Z,1023.80
2017-04-19T06:41:29.273Z,1023.83
2017-04-19T06:42:29.801Z,1023.86
2017-04-19T06:43:30.331Z,1023.79
2017-04-19T06:44:30.860Z,1023.82
2017-04-19T06:45:31.389Z,1023.86
2017-04-19T06:46:31.926Z,1023.76
2017-04-19T06:47:32.593Z,1023.80
2017-04-19T06:48:33.121Z,1023.77
2017-04-19T06:49:33.657Z,1023.81
2017-04-19T06:50:34.188Z,1023.74
2017-04-19T06:51:34.578Z,1023.77
2017-04-19T06:52:35.108Z,1023.80
2017-04-19T06:53:35.644Z,1023.76
2017-04-19T06:54:36.179Z,1023.78
2017-04-19T06:55:36.697Z,1023.78
2017-04-19T06:56:37.227Z,1023.75
2017-04-19T06:57:37.754Z,1023.75
2017-04-19T06:58:38.287Z,1023.75
2017-04-19T06:59:38.963Z,1023.76
2017-04-19T07:00:39.346Z,1023.79
2017-04-19T07:01:39.875Z,1023.81
2017-04-19T07:02:40.406Z,1023.75
2017-04-19T07:03:40.932Z,1023.80
2017-04-19T07:04:41.464Z,1023.77
2017-04-19T07:05:41.991Z,1023.75
2017-04-19T07:06:42.523Z,1023.82
2017-04-19T07:07:43.049Z,1023.87
2017-04-19T07:08:43.728Z,1023.92
2017-04-19T07:09:44.258Z,1023.89
2017-04-19T07:10:44.642Z,1023.90
2017-04-19T07:11:45.319Z,1023.84
2017-04-19T07:12:45.704Z,1023.92
2017-04-19T07:13:46.230Z,1023.94
2017-04-19T07:14:46.906Z,1023.92
2017-04-19T07:15:47.327Z,1023.91
2017-04-19T07:16:47.820Z,1023.92
2017-04-19T07:17:48.502Z,1023.93
2017-04-19T07:18:48.880Z,1023.91
2017-04-19T07:19:49.415Z,1023.97
2017-04-19T07:20:50.090Z,1023.93
2017-04-19T07:21:50.465Z,1023.96
2017-04-19T07:22:51.005Z,1023.94
2017-04-19T07:23:51.531Z,1023.93
2017-04-19T07:24:52.207Z,1023.94
2017-04-19T07:25:52.592Z,1024.00
2017-04-19T07:26:53.124Z,1023.90
2017-04-19T07:27:53.805Z,1023.95
2017-04-19T07:28:54.330Z,1024.04
2017-04-19T07:29:54.866Z,1023.94
2017-04-19T07:30:55.395Z,1023.99
2017-04-19T07:31:55.798Z,1024.00
2017-04-19T07:32:56.460Z,1024.03
2017-04-19T07:33:56.994Z,1024.03
2017-04-19T07:34:57.524Z,1024.05
2017-04-19T07:35:57.924Z,1024.02
2017-04-19T07:36:58.436Z,1024.01
2017-04-19T07:37:58.965Z,1024.04
2017-04-19T07:38:59.496Z,1024.06
2017-04-19T07:40:00.025Z,1024.04
2017-04-19T07:41:00.702Z,1024.07
2017-04-19T07:42:01.086Z,1024.10
2017-04-19T07:43:01.616Z,1024.09
2017-04-19T07:44:02.147Z,1024.08
2017-04-19T07:45:02.820Z,1024.07
2017-04-19T07:46:03.202Z,1024.05
2017-04-19T07:47:03.734Z,1024.03
2017-04-19T07:48:04.258Z,1024.13
2017-04-19T07:49:04.823Z,1024.11
2017-04-19T07:50:05.319Z,1024.12
2017-04-19T07:51:05.854Z,1024.17
2017-04-19T07:52:06.398Z,1024.17
2017-04-19T07:53:06.913Z,1024.16
2017-04-19T07:54:07.443Z,1024.11
2017-04-19T07:55:07.973Z,1024.20
2017-04-19T07:56:08.506Z,1024.21
2017-04-19T07:57:09.033Z,1024.24
2017-04-19T07:58:09.571Z,1024.27
2017-04-19T07:59:10.086Z,1024.24
2017-04-19T08:00:10.651Z,1024.28
2017-04-19T08:01:11.298Z,1024.23
2017-04-19T08:02:11.680Z,1024.22
2017-04-19T08:03:12.209Z,1024.26
2017-04-19T08:04:12.738Z,1024.26
2017-04-19T08:05:13.271Z,1024.31
2017-04-19T08:06:13.801Z,1024.29
2017-04-19T08:07:14.328Z,1024.26
2017-04-19T08:08:14.857Z,1024.22
2017-04-19T08:09:15.389Z,1024.28
2017-04-19T08:10:15.914Z,1024.25
2017-04-19T08:11:16.449Z,1024.30
2017-04-19T08:12:16.981Z,1024.29
2017-04-19T08:13:17.660Z,1024.32
2017-04-19T08:14:18.196Z,1024.30
2017-04-19T08:15:18.604Z,1024.28
2017-04-19T08:16:19.273Z,1024.29
2017-04-19T08:17:19.654Z,1024.28
2017-04-19T08:18:20.187Z,1024.31
2017-04-19T08:19:20.715Z,1024.31
2017-04-19T08:20:21.240Z,1024.38
2017-04-19T08:21:21.772Z,1024.29
2017-04-19T08:22:22.309Z,1024.28
2017-04-19T08:23:22.830Z,1024.33
2017-04-19T08:24:23.359Z,1024.35
2017-04-19T08:25:23.888Z,1024.35
2017-04-19T08:26:25.462Z,1024.31
2017-04-19T08:27:24.946Z,1024.36
2017-04-19T08:28:25.465Z,1024.33
2017-04-19T08:29:26.002Z,1024.31
2017-04-19T08:30:26.520Z,1024.39
2017-04-19T08:31:27.052Z,1024.37
2017-04-19T08:32:27.585Z,1024.38
2017-04-19T08:33:28.260Z,1024.41
2017-04-19T08:34:28.642Z,1024.41
2017-04-19T08:35:29.177Z,1024.49
2017-04-19T08:36:29.710Z,1024.40
2017-04-19T08:37:30.235Z,1024.40
2017-04-19T08:38:30.763Z,1024.41
2017-04-19T08:39:31.298Z,1024.42
2017-04-19T08:40:31.978Z,1024.45
2017-04-19T08:41:32.355Z,1024.40
2017-04-19T08:42:32.884Z,1024.50
2017-04-19T08:43:33.563Z,1024.48
2017-04-19T08:44:34.090Z,1024.49
2017-04-19T08:45:34.472Z,1024.52
2017-04-19T08:46:35.003Z,1024.51
2017-04-19T08:47:35.555Z,1024.48
2017-04-19T08:48:36.067Z,1024.49
2017-04-19T08:49:36.590Z,1024.49
2017-04-19T08:50:37.115Z,1024.54
2017-04-19T08:51:37.650Z,1024.46
2017-04-19T08:52:38.176Z,1024.48
2017-04-19T08:53:38.708Z,1024.43
2017-04-19T08:54:39.239Z,1024.49
2017-04-19T08:55:39.777Z,1024.55
2017-04-19T08:56:40.330Z,1024.56
2017-04-19T08:57:40.844Z,1024.47
2017-04-19T08:58:41.524Z,1024.59
2017-04-19T08:59:41.909Z,1024.55
2017-04-19T09:00:42.432Z,1024.63
2017-04-19T09:01:42.973Z,1024.60
2017-04-19T09:02:43.503Z,1024.56
2017-04-19T09:03:44.030Z,1024.54
2017-04-19T09:04:44.562Z,1024.60
2017-04-19T09:05:45.092Z,1024.65
2017-04-19T09:06:45.618Z,1024.61
2017-04-19T09:07:46.151Z,1024.67
2017-04-19T09:08:46.681Z,1024.61
2017-04-19T09:09:47.213Z,1024.64
2017-04-19T09:10:47.746Z,1024.59
2017-04-19T09:11:48.270Z,1024.60
2017-04-19T09:12:48.799Z,1024.65
2017-04-19T09:13:49.333Z,1024.59
2017-04-19T09:14:49.857Z,1024.75
2017-04-19T09:15:50.388Z,1024.71
2017-04-19T09:16:50.916Z,1024.69
2017-04-19T09:17:51.447Z,1024.68
2017-04-19T09:18:51.974Z,1024.73
2017-04-19T09:19:52.507Z,1024.68
2017-04-19T09:20:53.066Z,1024.76
2017-04-19T09:21:53.562Z,1024.68
2017-04-19T09:22:54.089Z,1024.78
2017-04-19T09:23:54.616Z,1024.72
2017-04-19T09:24:55.146Z,1024.84
2017-04-19T09:25:55.674Z,1024.69
2017-04-19T09:26:56.354Z,1024.72
2017-04-19T09:27:56.734Z,1024.70
2017-04-19T09:28:57.260Z,1024.77
2017-04-19T09:29:57.792Z,1024.76
2017-04-19T09:30:58.315Z,1024.75
2017-04-19T09:31:58.856Z,1024.69
2017-04-19T09:32:59.374Z,1024.75
2017-04-19T09:33:59.909Z,1024.77
2017-04-19T09:35:00.436Z,1024.77
2017-04-19T09:36:00.965Z,1024.75
2017-04-19T09:37:01.645Z,1024.77
2017-04-19T09:38:02.030Z,1024.75
2017-04-19T09:39:02.564Z,1024.82
2017-04-19T09:40:03.095Z,1024.78
2017-04-19T09:41:03.632Z,1024.84
2017-04-19T09:42:04.160Z,1024.79
2017-04-19T09:43:04.683Z,1024.76
2017-04-19T09:44:05.216Z,1024.80
2017-04-19T09:45:05.744Z,1024.74
2017-04-19T09:46:06.278Z,1024.71
2017-04-19T09:47:06.814Z,1024.81
2017-04-19T09:48:07.336Z,1024.74
2017-04-19T09:49:07.874Z,1024.76
2017-04-19T09:50:08.401Z,1024.76
2017-04-19T09:51:09.082Z,1024.76
2017-04-19T09:52:09.460Z,1024.78
2017-04-19T09:53:09.987Z,1024.79
2017-04-19T09:54:10.517Z,1024.75
2017-04-19T09:55:11.044Z,1024.76
2017-04-19T09:56:11.579Z,1024.80
2017-04-19T09:57:12.100Z,1024.71
2017-04-19T09:58:12.633Z,1024.74
2017-04-19T09:59:13.166Z,1024.76
2017-04-19T10:00:13.695Z,1024.70
2017-04-19T10:01:14.223Z,1024.68
2017-04-19T10:02:14.752Z,1024.73
2017-04-19T10:03:15.296Z,1024.70
2017-04-19T10:04:15.808Z,1024.87
2017-04-19T10:05:16.344Z,1024.83
2017-04-19T10:06:16.869Z,1024.96
2017-04-19T10:07:17.545Z,1025.00
2017-04-19T10:08:18.077Z,1025.01
2017-04-19T10:09:18.473Z,1024.95
2017-04-19T10:10:18.988Z,1024.95
2017-04-19T10:11:19.517Z,1024.95
2017-04-19T10:12:20.049Z,1024.91
2017-04-19T10:13:20.583Z,1024.94
2017-04-19T10:14:21.110Z,1024.98
2017-04-19T10:15:21.785Z,1024.96
2017-04-19T10:16:22.170Z,1024.90
2017-04-19T10:17:22.703Z,1024.84
2017-04-19T10:18:23.242Z,1024.90
2017-04-19T10:19:23.758Z,1024.91
2017-04-19T10:20:24.292Z,1024.93
2017-04-19T10:21:24.823Z,1024.91
2017-04-19T10:22:25.504Z,1024.90
2017-04-19T10:23:26.036Z,1024.92
2017-04-19T10:24:26.428Z,1024.96
2017-04-19T10:25:26.951Z,1024.87
2017-04-19T10:26:27.474Z,1024.97
2017-04-19T10:27:28.035Z,1024.86
2017-04-19T10:28:28.678Z,1024.87
2017-04-19T10:29:29.214Z,1024.85
2017-04-19T10:30:29.592Z,1024.78
2017-04-19T10:31:30.140Z,1024.84
2017-04-19T10:32:30.796Z,1024.82
2017-04-19T10:33:31.173Z,1024.78
2017-04-19T10:34:31.733Z,1024.81
2017-04-19T10:35:32.233Z,1024.74
2017-04-19T10:36:32.767Z,1024.80
2017-04-19T10:37:33.302Z,1024.80
2017-04-19T10:38:33.828Z,1024.77
2017-04-19T10:39:34.362Z,1024.73
2017-04-19T10:40:34.888Z,1024.77
2017-04-19T10:41:35.422Z,1024.81
2017-04-19T10:42:36.088Z,1024.79
2017-04-19T10:43:36.469Z,1024.82
2017-04-19T10:44:37.004Z,1024.86
2017-04-19T10:45:37.542Z,1024.80
2017-04-19T10:46:38.076Z,1024.82
2017-04-19T10:47:38.588Z,1024.80
2017-04-19T10:48:39.266Z,1024.85
2017-04-19T10:49:39.652Z,1024.77
2017-04-19T10:50:40.182Z,1024.81
2017-04-19T10:51:40.710Z,1024.74
2017-04-19T10:52:41.239Z,1024.80
2017-04-19T10:53:41.766Z,1024.84
2017-04-19T10:54:42.302Z,1024.84
2017-04-19T10:55:42.829Z,1024.87
2017-04-19T10:56:43.366Z,1024.84
2017-04-19T10:57:44.043Z,1024.85
2017-04-19T10:58:44.431Z,1024.84
2017-04-19T10:59:44.963Z,1024.93
2017-04-19T11:00:45.491Z,1024.91
2017-04-19T11:01:46.022Z,1024.91
2017-04-19T11:02:46.556Z,1024.92
2017-04-19T11:03:47.088Z,1024.96
2017-04-19T11:04:47.620Z,1025.00
2017-04-19T11:05:48.301Z,1024.99
2017-04-19T11:06:48.683Z,1025.03
2017-04-19T11:07:49.209Z,1024.99
2017-04-19T11:08:49.742Z,1025.04
2017-04-19T11:09:50.422Z,1025.03
2017-04-19T11:10:50.801Z,1025.05
2017-04-19T11:11:51.328Z,1025.01
2017-04-19T11:12:51.855Z,1025.04
2017-04-19T11:13:52.393Z,1025.02
2017-04-19T11:14:53.062Z,1025.05
2017-04-19T11:15:53.449Z,1025.02
2017-04-19T11:16:53.973Z,1025.04
2017-04-19T11:17:54.502Z,1025.04
2017-04-19T11:18:55.049Z,1024.98
2017-04-19T11:19:55.565Z,1024.94
2017-04-19T11:20:56.102Z,1024.98
2017-04-19T11:22:57.162Z,1024.84
2017-04-19T11:23:57.689Z,1024.88
2017-04-19T11:24:58.228Z,1024.88
2017-04-19T11:25:58.748Z,1024.87
2017-04-19T11:26:59.278Z,1024.82
2017-04-19T11:27:59.806Z,1024.84
2017-04-19T11:29:00.339Z,1024.85
2017-04-19T11:30:01.019Z,1024.86
2017-04-19T11:31:01.406Z,1024.84
2017-04-19T11:32:01.933Z,1024.88
2017-04-19T11:33:02.465Z,1024.80
2017-04-19T11:34:02.985Z,1024.82
2017-04-19T11:35:03.515Z,1024.79
2017-04-19T11:36:04.044Z,1024.82
2017-04-19T11:37:04.576Z,1024.84
2017-04-19T11:38:05.104Z,1024.90
2017-04-19T11:39:05.633Z,1024.88
2017-04-19T11:40:06.166Z,1024.89
2017-04-19T11:41:06.698Z,1024.95
2017-04-19T11:42:07.233Z,1024.94
2017-04-19T11:43:07.758Z,1025.01
2017-04-19T11:44:08.288Z,1025.00
2017-04-19T11:45:08.828Z,1024.98
2017-04-19T11:46:09.365Z,1024.99
2017-04-19T11:47:09.894Z,1024.95
2017-04-19T11:48:10.427Z,1024.97
2017-04-19T11:49:10.959Z,1024.97
2017-04-19T11:50:11.488Z,1024.98
2017-04-19T11:51:12.023Z,1024.99
2017-04-19T11:52:12.697Z,1024.95
2017-04-19T11:53:13.079Z,1024.97
2017-04-19T11:54:13.609Z,1024.99
2017-04-19T11:55:14.141Z,1025.00
2017-04-19T11:56:14.669Z,1024.94
2017-04-19T11:57:15.202Z,1024.91
2017-04-19T11:58:15.726Z,1024.82
2017-04-19T11:59:16.256Z,1024.82
2017-04-19T12:00:16.793Z,1024.88
2017-04-19T12:01:17.309Z,1024.86
2017-04-19T12:02:17.848Z,1024.81
2017-04-19T12:03:18.518Z,1024.73
2017-04-19T12:04:18.904Z,1024.78
2017-04-19T12:05:19.442Z,1024.85
2017-04-19T12:06:19.961Z,1024.88
2017-04-19T12:07:20.497Z,1024.83
2017-04-19T12:08:21.025Z,1024.80
2017-04-19T12:09:21.555Z,1024.75
2017-04-19T12:10:22.082Z,1024.78
2017-04-19T12:11:22.617Z,1024.84
2017-04-19T12:12:23.141Z,1024.88
2017-04-19T12:13:23.819Z,1024.89
2017-04-19T12:14:24.202Z,1024.95